We Are Winnipeg.

Screenshot by Todd Blanchette

Come explore the heart of Canada.  


  Upcoming Events

[OTS] CYWG_TWR (S2) for Yuven Sundaramoorthy  August 8, 2021 00:00z
Cross The Border  August 8, 2021 21:00z

  Top Controllers this Month

Benjamin Cook 1214000
27:44

Tavis Harrison 1444863
20:44

Zachary Collison 1431902
18:16

Karl Sawatzky 1272864
10:24

Rynjil Harwood 1395788
10:01

  Online Controllers

No controllers online.

  Weather

CYWG - Winnipeg / James Armstrong Richardson International Airport   VFR
CYWG 302200Z 29014G19KT 10SM FEW080 SCT110 SCT250 32/12 A2992 RMK CU1AC3CI1 CU TR FU SLP133 DENSITY ALT 2900FT

CYXE - Saskatoon John G. Diefenbaker International Airport   VFR
CYXE 302200Z 31009G18KT 15SM FEW080 FEW300 30/09 A3013 RMK CU1CI1 SLP207 DENSITY ALT 3600FT

CYQT - Thunder Bay Airport   VFR
CYQT 302200Z 19010KT 20SM FEW085 BKN150 BKN260 21/13 A3003 RMK AC2AC3CI2 SLP174 DENSITY ALT 1400FT

CYQR - Regina International Airport   VFR
CYQR 302200Z 35015G23KT 12SM FEW080 31/10 A3012 RMK CF1 CF TR HZ SLP201 DENSITY ALT 3900FT

CYMJ - Moose Jaw Air Vice Marshal C. M. McEwen Airport   VFR
CYMJ 302248Z 34016G21KT 10SM FEW095 32/07 A3013 RMK CF1 HZ LAST OBS / NXT 021200 UTC SLP193

CYPG - Portage-la-Prairie / Southport Airport   VFR
CYPG 302200Z 26010G15KT 6SM FU FEW073 SCT250 32/13 A2995 RMK CU2CI2 DA3216FT LAST OBS/NEXT 031100 UTC MDT CU SLP138